sensor_id;sensor_type;location;lat;lon;timestamp;temperature;humidity
30186;DHT22;31152;49.190;8.122;2023-02-20T00:01:00;8.50;99.90
30186;DHT22;31152;49.190;8.122;2023-02-20T00:03:27;8.50;99.90
30186;DHT22;31152;49.190;8.122;2023-02-20T00:05:53;8.40;99.90
30186;DHT22;31152;49.190;8.122;2023-02-20T00:08:20;8.40;99.90
30186;DHT22;31152;49.190;8.122;2023-02-20T00:10:48;8.30;99.90
30186;DHT22;31152;49.190;8.122;2023-02-20T00:13:15;8.30;99.90
30186;DHT22;31152;49.190;8.122;2023-02-20T00:15:42;8.20;99.90
30186;DHT22;31152;49.190;8.122;2023-02-20T00:18:08;8.20;99.90
30186;DHT22;31152;49.190;8.122;2023-02-20T00:20:39;8.20;99.90
30186;DHT22;31152;49.190;8.122;2023-02-20T00:23:10;8.20;99.90
30186;DHT22;31152;49.190;8.122;2023-02-20T00:25:37;8.20;99.90
30186;DHT22;31152;49.190;8.122;2023-02-20T00:28:06;8.20;99.90
30186;DHT22;31152;49.190;8.122;2023-02-20T00:30:33;8.10;99.90
30186;DHT22;31152;49.190;8.122;2023-02-20T00:33:02;8.10;99.90
30186;DHT22;31152;49.190;8.122;2023-02-20T00:35:29;8.00;99.90
30186;DHT22;31152;49.190;8.122;2023-02-20T00:37:56;7.90;99.90
30186;DHT22;31152;49.190;8.122;2023-02-20T00:40:23;7.80;99.90
30186;DHT22;31152;49.190;8.122;2023-02-20T00:42:53;7.80;99.90
30186;DHT22;31152;49.190;8.122;2023-02-20T00:45:20;7.60;99.90
30186;DHT22;31152;49.190;8.122;2023-02-20T00:47:47;7.50;99.90
30186;DHT22;31152;49.190;8.122;2023-02-20T00:50:15;7.50;99.90
30186;DHT22;31152;49.190;8.122;2023-02-20T00:52:42;7.50;99.90
30186;DHT22;31152;49.190;8.122;2023-02-20T00:55:09;7.40;99.90
30186;DHT22;31152;49.190;8.122;2023-02-20T00:57:38;7.40;99.90
30186;DHT22;31152;49.190;8.122;2023-02-20T01:00:09;7.40;99.90
30186;DHT22;31152;49.190;8.122;2023-02-20T01:02:40;7.40;99.90
30186;DHT22;31152;49.190;8.122;2023-02-20T01:05:07;7.40;99.90
30186;DHT22;31152;49.190;8.122;2023-02-20T01:07:34;7.30;99.90
30186;DHT22;31152;49.190;8.122;2023-02-20T01:10:00;7.30;99.90
30186;DHT22;31152;49.190;8.122;2023-02-20T01:12:27;7.20;99.90
30186;DHT22;31152;49.190;8.122;2023-02-20T01:14:54;7.20;99.90
30186;DHT22;31152;49.190;8.122;2023-02-20T01:17:23;7.20;99.90
30186;DHT22;31152;49.190;8.122;2023-02-20T01:19:49;7.10;99.90
30186;DHT22;31152;49.190;8.122;2023-02-20T01:22:16;7.10;99.90
30186;DHT22;31152;49.190;8.122;2023-02-20T01:24:43;7.20;99.90
30186;DHT22;31152;49.190;8.122;2023-02-20T01:27:09;7.20;99.90
30186;DHT22;31152;49.190;8.122;2023-02-20T01:29:36;7.20;99.90
30186;DHT22;31152;49.190;8.122;2023-02-20T01:32:03;7.10;99.90
30186;DHT22;31152;49.190;8.122;2023-02-20T01:34:34;7.10;99.90
30186;DHT22;31152;49.190;8.122;2023-02-20T01:37:01;7.10;99.90
30186;DHT22;31152;49.190;8.122;2023-02-20T01:39:30;7.10;99.90
30186;DHT22;31152;49.190;8.122;2023-02-20T01:41:59;7.10;99.90
30186;DHT22;31152;49.190;8.122;2023-02-20T01:44:30;7.10;99.90
30186;DHT22;31152;49.190;8.122;2023-02-20T01:47:19;7.10;99.90
30186;DHT22;31152;49.190;8.122;2023-02-20T01:49:58;7.10;99.90
30186;DHT22;31152;49.190;8.122;2023-02-20T01:52:30;7.10;99.90
30186;DHT22;31152;49.190;8.122;2023-02-20T01:55:07;7.10;99.90
30186;DHT22;31152;49.190;8.122;2023-02-20T01:57:41;7.10;99.90
30186;DHT22;31152;49.190;8.122;2023-02-20T02:00:13;7.20;99.90
30186;DHT22;31152;49.190;8.122;2023-02-20T02:02:49;7.20;99.90
30186;DHT22;31152;49.190;8.122;2023-02-20T02:05:17;7.20;99.90
30186;DHT22;31152;49.190;8.122;2023-02-20T02:07:44;7.30;99.90
30186;DHT22;31152;49.190;8.122;2023-02-20T02:10:22;7.30;99.90
30186;DHT22;31152;49.190;8.122;2023-02-20T02:12:52;7.40;99.90
30186;DHT22;31152;49.190;8.122;2023-02-20T02:15:23;7.40;99.90
30186;DHT22;31152;49.190;8.122;2023-02-20T02:32:25;7.30;99.90
30186;DHT22;31152;49.190;8.122;2023-02-20T02:35:17;7.20;99.90
30186;DHT22;31152;49.190;8.122;2023-02-20T02:38:25;7.20;99.90
30186;DHT22;31152;49.190;8.122;2023-02-20T02:46:47;7.10;99.90
30186;DHT22;31152;49.190;8.122;2023-02-20T02:52:20;7.10;99.90
30186;DHT22;31152;49.190;8.122;2023-02-20T02:55:12;7.10;99.90
30186;DHT22;31152;49.190;8.122;2023-02-20T02:57:39;7.10;99.90
30186;DHT22;31152;49.190;8.122;2023-02-20T03:00:26;7.10;99.90
30186;DHT22;31152;49.190;8.122;2023-02-20T03:06:26;7.10;99.90
30186;DHT22;31152;49.190;8.122;2023-02-20T03:09:14;7.10;99.90
30186;DHT22;31152;49.190;8.122;2023-02-20T03:11:43;7.10;99.90
30186;DHT22;31152;49.190;8.122;2023-02-20T03:17:20;7.10;99.90
30186;DHT22;31152;49.190;8.122;2023-02-20T03:19:55;7.10;99.90
30186;DHT22;31152;49.190;8.122;2023-02-20T03:25:16;6.90;99.90
30186;DHT22;31152;49.190;8.122;2023-02-20T03:27:56;6.90;99.90
30186;DHT22;31152;49.190;8.122;2023-02-20T03:30:33;6.90;99.90
30186;DHT22;31152;49.190;8.122;2023-02-20T03:33:12;6.80;99.90
30186;DHT22;31152;49.190;8.122;2023-02-20T03:36:00;6.80;99.90
30186;DHT22;31152;49.190;8.122;2023-02-20T03:38:52;6.70;99.90
30186;DHT22;31152;49.190;8.122;2023-02-20T03:41:40;6.70;99.90
30186;DHT22;31152;49.190;8.122;2023-02-20T03:44:29;6.60;99.90
30186;DHT22;31152;49.190;8.122;2023-02-20T03:46:58;6.60;99.90
30186;DHT22;31152;49.190;8.122;2023-02-20T03:49:31;6.60;99.90
30186;DHT22;31152;49.190;8.122;2023-02-20T03:51:58;6.60;99.90
30186;DHT22;31152;49.190;8.122;2023-02-20T03:54:26;6.50;99.90
30186;DHT22;31152;49.190;8.122;2023-02-20T03:56:58;6.50;99.90
30186;DHT22;31152;49.190;8.122;2023-02-20T03:59:39;6.50;99.90
30186;DHT22;31152;49.190;8.122;2023-02-20T04:02:15;6.40;99.90
30186;DHT22;31152;49.190;8.122;2023-02-20T04:04:47;6.40;99.90
30186;DHT22;31152;49.190;8.122;2023-02-20T04:07:23;6.40;99.90
30186;DHT22;31152;49.190;8.122;2023-02-20T04:09:51;6.40;99.90
30186;DHT22;31152;49.190;8.122;2023-02-20T04:12:31;6.40;99.90
30186;DHT22;31152;49.190;8.122;2023-02-20T04:15:03;6.40;99.90
30186;DHT22;31152;49.190;8.122;2023-02-20T04:17:34;6.40;99.90
30186;DHT22;31152;49.190;8.122;2023-02-20T04:20:03;6.30;99.90
30186;DHT22;31152;49.190;8.122;2023-02-20T04:22:34;6.30;99.90
30186;DHT22;31152;49.190;8.122;2023-02-20T04:25:08;6.30;99.90
30186;DHT22;31152;49.190;8.122;2023-02-20T04:27:40;6.30;99.90
30186;DHT22;31152;49.190;8.122;2023-02-20T04:30:10;6.30;99.90
30186;DHT22;31152;49.190;8.122;2023-02-20T04:32:37;6.30;99.90
30186;DHT22;31152;49.190;8.122;2023-02-20T04:35:08;6.30;99.90
30186;DHT22;31152;49.190;8.122;2023-02-20T04:37:38;6.20;99.90
30186;DHT22;31152;49.190;8.122;2023-02-20T04:40:07;6.20;99.90
30186;DHT22;31152;49.190;8.122;2023-02-20T04:42:34;6.20;99.90
30186;DHT22;31152;49.190;8.122;2023-02-20T04:45:03;6.10;99.90
30186;DHT22;31152;49.190;8.122;2023-02-20T04:47:30;6.10;99.90
30186;DHT22;31152;49.190;8.122;2023-02-20T04:49:57;6.10;99.90
30186;DHT22;31152;49.190;8.122;2023-02-20T04:52:24;6.00;99.90
30186;DHT22;31152;49.190;8.122;2023-02-20T04:54:50;6.00;99.90
30186;DHT22;31152;49.190;8.122;2023-02-20T04:57:18;6.00;99.90
30186;DHT22;31152;49.190;8.122;2023-02-20T04:59:44;6.00;99.90
30186;DHT22;31152;49.190;8.122;2023-02-20T05:02:16;5.90;99.90
30186;DHT22;31152;49.190;8.122;2023-02-20T05:04:42;5.90;99.90
30186;DHT22;31152;49.190;8.122;2023-02-20T05:07:09;5.90;99.90
30186;DHT22;31152;49.190;8.122;2023-02-20T05:09:42;5.90;99.90
30186;DHT22;31152;49.190;8.122;2023-02-20T05:12:08;5.90;99.90
30186;DHT22;31152;49.190;8.122;2023-02-20T05:14:35;5.80;99.90
30186;DHT22;31152;49.190;8.122;2023-02-20T05:17:04;5.80;99.90
30186;DHT22;31152;49.190;8.122;2023-02-20T05:19:31;5.70;99.90
30186;DHT22;31152;49.190;8.122;2023-02-20T05:21:58;5.70;99.90
30186;DHT22;31152;49.190;8.122;2023-02-20T05:24:44;5.70;99.90
30186;DHT22;31152;49.190;8.122;2023-02-20T05:27:13;5.70;99.90
30186;DHT22;31152;49.190;8.122;2023-02-20T05:29:44;5.60;99.90
30186;DHT22;31152;49.190;8.122;2023-02-20T05:32:11;5.60;99.90
30186;DHT22;31152;49.190;8.122;2023-02-20T05:34:41;5.50;99.90
30186;DHT22;31152;49.190;8.122;2023-02-20T05:37:08;5.50;99.90
30186;DHT22;31152;49.190;8.122;2023-02-20T05:39:35;5.50;99.90
30186;DHT22;31152;49.190;8.122;2023-02-20T05:42:01;5.50;99.90
30186;DHT22;31152;49.190;8.122;2023-02-20T05:44:28;5.50;99.90
30186;DHT22;31152;49.190;8.122;2023-02-20T05:46:55;5.60;99.90
30186;DHT22;31152;49.190;8.122;2023-02-20T05:49:22;5.60;99.90
30186;DHT22;31152;49.190;8.122;2023-02-20T05:51:54;5.60;99.90
30186;DHT22;31152;49.190;8.122;2023-02-20T05:54:21;5.70;99.90
30186;DHT22;31152;49.190;8.122;2023-02-20T05:56:48;5.70;99.90
30186;DHT22;31152;49.190;8.122;2023-02-20T05:59:18;5.70;99.90
30186;DHT22;31152;49.190;8.122;2023-02-20T06:01:45;5.60;99.90
30186;DHT22;31152;49.190;8.122;2023-02-20T06:04:12;5.60;99.90
30186;DHT22;31152;49.190;8.122;2023-02-20T06:06:41;5.60;99.90
30186;DHT22;31152;49.190;8.122;2023-02-20T06:09:09;5.60;99.90
30186;DHT22;31152;49.190;8.122;2023-02-20T06:11:48;5.60;99.90
30186;DHT22;31152;49.190;8.122;2023-02-20T06:14:15;5.60;99.90
30186;DHT22;31152;49.190;8.122;2023-02-20T06:16:44;5.60;99.90
30186;DHT22;31152;49.190;8.122;2023-02-20T06:19:17;5.60;99.90
30186;DHT22;31152;49.190;8.122;2023-02-20T06:21:48;5.60;99.90
30186;DHT22;31152;49.190;8.122;2023-02-20T06:24:15;5.50;99.90
30186;DHT22;31152;49.190;8.122;2023-02-20T06:26:43;5.60;99.90
30186;DHT22;31152;49.190;8.122;2023-02-20T06:29:10;5.60;99.90
30186;DHT22;31152;49.190;8.122;2023-02-20T06:31:37;5.60;99.90
30186;DHT22;31152;49.190;8.122;2023-02-20T06:34:08;5.60;99.90
30186;DHT22;31152;49.190;8.122;2023-02-20T06:36:37;5.70;99.90
30186;DHT22;31152;49.190;8.122;2023-02-20T06:39:08;5.70;99.90
30186;DHT22;31152;49.190;8.122;2023-02-20T06:41:38;5.60;99.90
30186;DHT22;31152;49.190;8.122;2023-02-20T06:44:04;5.60;99.90
30186;DHT22;31152;49.190;8.122;2023-02-20T06:46:33;5.60;99.90
30186;DHT22;31152;49.190;8.122;2023-02-20T06:49:00;5.60;99.90
30186;DHT22;31152;49.190;8.122;2023-02-20T06:51:30;5.60;99.90
30186;DHT22;31152;49.190;8.122;2023-02-20T06:53:57;5.60;99.90
30186;DHT22;31152;49.190;8.122;2023-02-20T06:56:27;5.50;99.90
30186;DHT22;31152;49.190;8.122;2023-02-20T06:58:55;5.50;99.90
30186;DHT22;31152;49.190;8.122;2023-02-20T07:01:24;5.50;99.90
30186;DHT22;31152;49.190;8.122;2023-02-20T07:03:52;5.50;99.90
30186;DHT22;31152;49.190;8.122;2023-02-20T07:06:24;5.50;99.90
30186;DHT22;31152;49.190;8.122;2023-02-20T07:08:51;5.40;99.90
30186;DHT22;31152;49.190;8.122;2023-02-20T07:11:21;5.50;99.90
30186;DHT22;31152;49.190;8.122;2023-02-20T07:13:49;5.60;99.90
30186;DHT22;31152;49.190;8.122;2023-02-20T07:16:18;5.80;99.90
30186;DHT22;31152;49.190;8.122;2023-02-20T07:18:45;6.00;99.90
30186;DHT22;31152;49.190;8.122;2023-02-20T07:21:12;6.20;99.90
30186;DHT22;31152;49.190;8.122;2023-02-20T07:23:39;6.30;99.90
30186;DHT22;31152;49.190;8.122;2023-02-20T07:26:05;6.40;99.90
30186;DHT22;31152;49.190;8.122;2023-02-20T07:28:35;6.50;99.90
30186;DHT22;31152;49.190;8.122;2023-02-20T07:31:02;6.60;99.90
30186;DHT22;31152;49.190;8.122;2023-02-20T07:33:29;6.60;99.90
30186;DHT22;31152;49.190;8.122;2023-02-20T07:35:56;6.50;99.90
30186;DHT22;31152;49.190;8.122;2023-02-20T07:38:22;6.60;99.90
30186;DHT22;31152;49.190;8.122;2023-02-20T07:40:49;6.60;99.90
30186;DHT22;31152;49.190;8.122;2023-02-20T07:43:16;6.60;99.90
30186;DHT22;31152;49.190;8.122;2023-02-20T07:45:43;6.70;99.90
30186;DHT22;31152;49.190;8.122;2023-02-20T07:48:09;6.70;99.90
30186;DHT22;31152;49.190;8.122;2023-02-20T07:50:36;6.70;99.90
30186;DHT22;31152;49.190;8.122;2023-02-20T07:53:03;6.80;99.90
30186;DHT22;31152;49.190;8.122;2023-02-20T07:55:30;6.80;99.90
30186;DHT22;31152;49.190;8.122;2023-02-20T07:57:57;6.90;99.90
30186;DHT22;31152;49.190;8.122;2023-02-20T08:00:25;7.00;99.90
30186;DHT22;31152;49.190;8.122;2023-02-20T08:02:52;6.90;99.90
30186;DHT22;31152;49.190;8.122;2023-02-20T08:05:20;7.00;99.90
30186;DHT22;31152;49.190;8.122;2023-02-20T08:07:48;7.10;99.90
30186;DHT22;31152;49.190;8.122;2023-02-20T08:10:17;7.20;99.90
30186;DHT22;31152;49.190;8.122;2023-02-20T08:12:45;7.20;99.90
30186;DHT22;31152;49.190;8.122;2023-02-20T08:15:12;7.30;99.90
30186;DHT22;31152;49.190;8.122;2023-02-20T08:17:39;7.40;99.90
30186;DHT22;31152;49.190;8.122;2023-02-20T08:20:14;7.50;99.90
30186;DHT22;31152;49.190;8.122;2023-02-20T08:22:43;7.70;99.90
30186;DHT22;31152;49.190;8.122;2023-02-20T08:25:10;7.90;99.90
30186;DHT22;31152;49.190;8.122;2023-02-20T08:27:43;8.00;99.90
30186;DHT22;31152;49.190;8.122;2023-02-20T08:30:15;8.10;99.90
30186;DHT22;31152;49.190;8.122;2023-02-20T08:32:42;8.30;99.90
30186;DHT22;31152;49.190;8.122;2023-02-20T08:35:09;8.40;99.90
30186;DHT22;31152;49.190;8.122;2023-02-20T08:37:36;8.60;99.90
30186;DHT22;31152;49.190;8.122;2023-02-20T08:40:03;8.80;99.90
30186;DHT22;31152;49.190;8.122;2023-02-20T08:42:32;8.90;99.90
30186;DHT22;31152;49.190;8.122;2023-02-20T08:45:03;9.00;99.90
30186;DHT22;31152;49.190;8.122;2023-02-20T08:47:33;9.10;99.90
30186;DHT22;31152;49.190;8.122;2023-02-20T08:50:00;9.30;99.90
30186;DHT22;31152;49.190;8.122;2023-02-20T08:52:29;9.30;99.90
30186;DHT22;31152;49.190;8.122;2023-02-20T08:55:00;9.30;99.90
30186;DHT22;31152;49.190;8.122;2023-02-20T08:57:27;9.40;99.90
30186;DHT22;31152;49.190;8.122;2023-02-20T08:59:54;9.50;99.90
30186;DHT22;31152;49.190;8.122;2023-02-20T09:02:22;9.70;99.90
30186;DHT22;31152;49.190;8.122;2023-02-20T09:04:50;9.80;99.90
30186;DHT22;31152;49.190;8.122;2023-02-20T09:07:16;9.90;99.90
30186;DHT22;31152;49.190;8.122;2023-02-20T09:09:43;10.00;99.90
30186;DHT22;31152;49.190;8.122;2023-02-20T09:12:11;10.20;99.90
30186;DHT22;31152;49.190;8.122;2023-02-20T09:14:38;10.30;99.90
30186;DHT22;31152;49.190;8.122;2023-02-20T09:17:05;10.30;99.90
30186;DHT22;31152;49.190;8.122;2023-02-20T09:19:32;10.50;99.90
30186;DHT22;31152;49.190;8.122;2023-02-20T09:21:59;10.50;99.90
30186;DHT22;31152;49.190;8.122;2023-02-20T09:24:26;10.50;99.90
30186;DHT22;31152;49.190;8.122;2023-02-20T09:27:00;10.50;99.90
30186;DHT22;31152;49.190;8.122;2023-02-20T09:29:27;10.40;99.90
30186;DHT22;31152;49.190;8.122;2023-02-20T09:31:54;10.40;99.90
30186;DHT22;31152;49.190;8.122;2023-02-20T09:34:21;10.50;99.90
30186;DHT22;31152;49.190;8.122;2023-02-20T09:36:48;10.60;99.90
30186;DHT22;31152;49.190;8.122;2023-02-20T09:39:19;10.70;99.90
30186;DHT22;31152;49.190;8.122;2023-02-20T09:50:43;11.00;99.90
30186;DHT22;31152;49.190;8.122;2023-02-20T09:55:50;11.40;99.90
30186;DHT22;31152;49.190;8.122;2023-02-20T10:00:57;11.40;99.90
30186;DHT22;31152;49.190;8.122;2023-02-20T10:03:47;11.50;99.90
30186;DHT22;31152;49.190;8.122;2023-02-20T10:06:22;11.60;99.90
30186;DHT22;31152;49.190;8.122;2023-02-20T10:08:53;11.80;99.90
30186;DHT22;31152;49.190;8.122;2023-02-20T10:14:13;12.20;99.90
30186;DHT22;31152;49.190;8.122;2023-02-20T10:16:56;12.70;99.90
30186;DHT22;31152;49.190;8.122;2023-02-20T10:19:30;13.10;99.90
30186;DHT22;31152;49.190;8.122;2023-02-20T10:22:13;13.40;99.90
30186;DHT22;31152;49.190;8.122;2023-02-20T10:30:34;14.50;99.90
30186;DHT22;31152;49.190;8.122;2023-02-20T10:33:25;14.70;99.90
30186;DHT22;31152;49.190;8.122;2023-02-20T10:36:01;15.00;99.90
30186;DHT22;31152;49.190;8.122;2023-02-20T10:38:37;15.10;99.90
30186;DHT22;31152;49.190;8.122;2023-02-20T10:43:52;15.00;99.90
30186;DHT22;31152;49.190;8.122;2023-02-20T10:46:49;15.10;99.90
30186;DHT22;31152;49.190;8.122;2023-02-20T10:49:22;15.40;99.90
30186;DHT22;31152;49.190;8.122;2023-02-20T10:51:56;15.40;99.90
30186;DHT22;31152;49.190;8.122;2023-02-20T10:54:33;15.40;99.90
30186;DHT22;31152;49.190;8.122;2023-02-20T10:57:11;15.70;99.90
30186;DHT22;31152;49.190;8.122;2023-02-20T10:59:52;15.90;99.90
30186;DHT22;31152;49.190;8.122;2023-02-20T11:02:31;16.20;99.90
30186;DHT22;31152;49.190;8.122;2023-02-20T11:05:06;16.00;99.50
30186;DHT22;31152;49.190;8.122;2023-02-20T11:07:35;16.10;99.40
30186;DHT22;31152;49.190;8.122;2023-02-20T11:10:03;15.90;99.40
30186;DHT22;31152;49.190;8.122;2023-02-20T11:15:14;16.00;98.90
30186;DHT22;31152;49.190;8.122;2023-02-20T11:17:41;16.10;98.50
30186;DHT22;31152;49.190;8.122;2023-02-20T11:23:03;16.40;98.20
30186;DHT22;31152;49.190;8.122;2023-02-20T11:25:35;16.60;98.20
30186;DHT22;31152;49.190;8.122;2023-02-20T11:28:20;16.90;97.00
30186;DHT22;31152;49.190;8.122;2023-02-20T11:30:59;16.80;97.10
30186;DHT22;31152;49.190;8.122;2023-02-20T11:33:30;16.90;96.20
30186;DHT22;31152;49.190;8.122;2023-02-20T11:36:09;17.00;96.00
30186;DHT22;31152;49.190;8.122;2023-02-20T11:38:41;17.00;95.90
30186;DHT22;31152;49.190;8.122;2023-02-20T11:41:25;16.90;95.60
30186;DHT22;31152;49.190;8.122;2023-02-20T11:46:35;17.40;94.80
30186;DHT22;31152;49.190;8.122;2023-02-20T11:49:10;17.70;95.40
30186;DHT22;31152;49.190;8.122;2023-02-20T11:51:42;18.00;93.30
30186;DHT22;31152;49.190;8.122;2023-02-20T11:59:41;17.80;91.20
30186;DHT22;31152;49.190;8.122;2023-02-20T12:07:53;17.40;91.60
30186;DHT22;31152;49.190;8.122;2023-02-20T12:10:42;17.60;90.60
30186;DHT22;31152;49.190;8.122;2023-02-20T12:13:13;17.40;91.20
30186;DHT22;31152;49.190;8.122;2023-02-20T12:15:42;17.70;91.30
30186;DHT22;31152;49.190;8.122;2023-02-20T12:18:41;17.90;90.60
30186;DHT22;31152;49.190;8.122;2023-02-20T12:27:47;18.50;86.10
30186;DHT22;31152;49.190;8.122;2023-02-20T12:33:24;17.90;87.30
30186;DHT22;31152;49.190;8.122;2023-02-20T12:38:54;18.30;86.60
30186;DHT22;31152;49.190;8.122;2023-02-20T12:42:15;18.00;86.40
30186;DHT22;31152;49.190;8.122;2023-02-20T12:50:20;18.00;85.90
30186;DHT22;31152;49.190;8.122;2023-02-20T12:53:09;18.30;84.90
30186;DHT22;31152;49.190;8.122;2023-02-20T13:00:58;18.40;84.20
30186;DHT22;31152;49.190;8.122;2023-02-20T13:03:37;18.10;85.10
30186;DHT22;31152;49.190;8.122;2023-02-20T13:06:05;18.60;83.20
30186;DHT22;31152;49.190;8.122;2023-02-20T13:08:38;19.00;81.70
30186;DHT22;31152;49.190;8.122;2023-02-20T13:11:13;19.30;81.40
30186;DHT22;31152;49.190;8.122;2023-02-20T13:19:41;19.20;79.90
30186;DHT22;31152;49.190;8.122;2023-02-20T13:22:09;19.30;80.40
30186;DHT22;31152;49.190;8.122;2023-02-20T13:24:38;19.60;78.50
30186;DHT22;31152;49.190;8.122;2023-02-20T13:27:09;19.40;77.00
30186;DHT22;31152;49.190;8.122;2023-02-20T13:30:11;19.40;78.50
30186;DHT22;31152;49.190;8.122;2023-02-20T13:32:42;19.50;75.00
30186;DHT22;31152;49.190;8.122;2023-02-20T13:35:33;19.30;75.40
30186;DHT22;31152;49.190;8.122;2023-02-20T13:38:11;19.30;74.00
30186;DHT22;31152;49.190;8.122;2023-02-20T13:40:40;19.00;75.00
30186;DHT22;31152;49.190;8.122;2023-02-20T13:48:47;19.40;74.60
30186;DHT22;31152;49.190;8.122;2023-02-20T13:56:24;19.40;72.70
30186;DHT22;31152;49.190;8.122;2023-02-20T13:58:54;19.50;74.20
30186;DHT22;31152;49.190;8.122;2023-02-20T14:01:24;19.60;72.60
30186;DHT22;31152;49.190;8.122;2023-02-20T14:04:01;19.60;72.80
30186;DHT22;31152;49.190;8.122;2023-02-20T14:06:28;19.30;72.00
30186;DHT22;31152;49.190;8.122;2023-02-20T14:09:09;19.50;71.10
30186;DHT22;31152;49.190;8.122;2023-02-20T14:11:40;19.60;71.80
30186;DHT22;31152;49.190;8.122;2023-02-20T14:14:30;19.60;70.30
30186;DHT22;31152;49.190;8.122;2023-02-20T14:17:06;19.50;70.10
30186;DHT22;31152;49.190;8.122;2023-02-20T14:19:38;19.30;70.70
30186;DHT22;31152;49.190;8.122;2023-02-20T14:22:40;19.10;72.20
30186;DHT22;31152;49.190;8.122;2023-02-20T14:25:23;19.30;71.50
30186;DHT22;31152;49.190;8.122;2023-02-20T14:27:50;19.50;70.90
30186;DHT22;31152;49.190;8.122;2023-02-20T14:30:22;19.40;72.70
30186;DHT22;31152;49.190;8.122;2023-02-20T14:32:54;19.40;71.80
30186;DHT22;31152;49.190;8.122;2023-02-20T14:35:33;19.30;72.20
30186;DHT22;31152;49.190;8.122;2023-02-20T14:38:34;19.20;71.40
30186;DHT22;31152;49.190;8.122;2023-02-20T14:41:17;19.20;73.00
30186;DHT22;31152;49.190;8.122;2023-02-20T14:43:52;19.40;72.30
30186;DHT22;31152;49.190;8.122;2023-02-20T14:46:24;19.90;71.50
30186;DHT22;31152;49.190;8.122;2023-02-20T14:49:16;19.70;71.00
30186;DHT22;31152;49.190;8.122;2023-02-20T14:51:51;19.50;70.90
30186;DHT22;31152;49.190;8.122;2023-02-20T14:54:24;19.30;71.60
30186;DHT22;31152;49.190;8.122;2023-02-20T14:56:53;19.60;71.90
30186;DHT22;31152;49.190;8.122;2023-02-20T14:59:33;19.50;71.60
30186;DHT22;31152;49.190;8.122;2023-02-20T15:02:20;19.40;71.80
30186;DHT22;31152;49.190;8.122;2023-02-20T15:05:06;19.30;72.30
30186;DHT22;31152;49.190;8.122;2023-02-20T15:07:37;19.30;73.00
30186;DHT22;31152;49.190;8.122;2023-02-20T15:10:27;19.00;73.30
30186;DHT22;31152;49.190;8.122;2023-02-20T15:13:10;18.60;74.80
30186;DHT22;31152;49.190;8.122;2023-02-20T15:15:42;18.20;74.60
30186;DHT22;31152;49.190;8.122;2023-02-20T15:18:15;18.10;75.80
30186;DHT22;31152;49.190;8.122;2023-02-20T15:20:44;18.20;76.60
30186;DHT22;31152;49.190;8.122;2023-02-20T15:25:58;18.20;76.00
30186;DHT22;31152;49.190;8.122;2023-02-20T15:28:44;18.50;76.60
30186;DHT22;31152;49.190;8.122;2023-02-20T15:33:48;18.50;75.10
30186;DHT22;31152;49.190;8.122;2023-02-20T15:36:20;18.10;76.90
30186;DHT22;31152;49.190;8.122;2023-02-20T15:38:54;17.60;78.20
30186;DHT22;31152;49.190;8.122;2023-02-20T15:41:22;17.10;79.90
30186;DHT22;31152;49.190;8.122;2023-02-20T15:43:51;16.90;80.80
30186;DHT22;31152;49.190;8.122;2023-02-20T15:46:18;16.70;81.60
30186;DHT22;31152;49.190;8.122;2023-02-20T15:48:48;16.40;82.40
30186;DHT22;31152;49.190;8.122;2023-02-20T15:51:22;16.20;83.80
30186;DHT22;31152;49.190;8.122;2023-02-20T15:53:52;16.10;84.70
30186;DHT22;31152;49.190;8.122;2023-02-20T15:56:19;16.00;85.40
30186;DHT22;31152;49.190;8.122;2023-02-20T15:58:48;15.90;86.20
30186;DHT22;31152;49.190;8.122;2023-02-20T16:01:18;15.90;86.20
30186;DHT22;31152;49.190;8.122;2023-02-20T16:03:45;15.70;87.40
30186;DHT22;31152;49.190;8.122;2023-02-20T16:06:21;15.70;88.10
30186;DHT22;31152;49.190;8.122;2023-02-20T16:08:49;15.70;88.80
30186;DHT22;31152;49.190;8.122;2023-02-20T16:11:24;15.80;88.90
30186;DHT22;31152;49.190;8.122;2023-02-20T16:13:55;15.70;89.30
30186;DHT22;31152;49.190;8.122;2023-02-20T16:18:55;15.50;90.00
30186;DHT22;31152;49.190;8.122;2023-02-20T16:21:22;15.50;90.30
30186;DHT22;31152;49.190;8.122;2023-02-20T16:23:51;15.50;90.30
30186;DHT22;31152;49.190;8.122;2023-02-20T16:26:26;15.60;90.20
30186;DHT22;31152;49.190;8.122;2023-02-20T16:28:58;15.60;90.40
30186;DHT22;31152;49.190;8.122;2023-02-20T16:34:31;14.70;91.80
30186;DHT22;31152;49.190;8.122;2023-02-20T16:37:01;14.40;92.80
30186;DHT22;31152;49.190;8.122;2023-02-20T16:39:28;14.20;93.30
30186;DHT22;31152;49.190;8.122;2023-02-20T16:41:58;14.00;93.80
30186;DHT22;31152;49.190;8.122;2023-02-20T16:44:34;13.80;94.40
30186;DHT22;31152;49.190;8.122;2023-02-20T16:47:13;13.60;95.20
30186;DHT22;31152;49.190;8.122;2023-02-20T16:49:40;13.40;95.70
30186;DHT22;31152;49.190;8.122;2023-02-20T16:54:48;13.10;96.60
30186;DHT22;31152;49.190;8.122;2023-02-20T16:57:18;13.10;97.00
30186;DHT22;31152;49.190;8.122;2023-02-20T17:00:02;13.00;97.70
30186;DHT22;31152;49.190;8.122;2023-02-20T17:02:34;12.90;97.80
30186;DHT22;31152;49.190;8.122;2023-02-20T17:05:03;12.80;98.10
30186;DHT22;31152;49.190;8.122;2023-02-20T17:07:29;12.80;98.50
30186;DHT22;31152;49.190;8.122;2023-02-20T17:09:56;12.80;98.80
30186;DHT22;31152;49.190;8.122;2023-02-20T17:12:23;12.70;99.00
30186;DHT22;31152;49.190;8.122;2023-02-20T17:14:50;12.70;99.10
30186;DHT22;31152;49.190;8.122;2023-02-20T17:17:20;12.60;99.40
30186;DHT22;31152;49.190;8.122;2023-02-20T17:19:47;12.60;99.50
30186;DHT22;31152;49.190;8.122;2023-02-20T17:22:18;12.60;99.70
30186;DHT22;31152;49.190;8.122;2023-02-20T17:24:47;12.50;99.80
30186;DHT22;31152;49.190;8.122;2023-02-20T17:27:17;12.50;99.80
30186;DHT22;31152;49.190;8.122;2023-02-20T17:29:45;12.50;99.90
30186;DHT22;31152;49.190;8.122;2023-02-20T17:32:13;12.50;99.90
30186;DHT22;31152;49.190;8.122;2023-02-20T17:34:40;12.50;99.90
30186;DHT22;31152;49.190;8.122;2023-02-20T17:37:08;12.50;99.90
30186;DHT22;31152;49.190;8.122;2023-02-20T17:39:35;12.40;99.90
30186;DHT22;31152;49.190;8.122;2023-02-20T17:42:02;12.40;99.90
30186;DHT22;31152;49.190;8.122;2023-02-20T17:44:30;12.40;99.90
30186;DHT22;31152;49.190;8.122;2023-02-20T17:46:58;12.30;99.90
30186;DHT22;31152;49.190;8.122;2023-02-20T17:49:26;12.30;99.90
30186;DHT22;31152;49.190;8.122;2023-02-20T17:51:56;12.30;99.90
30186;DHT22;31152;49.190;8.122;2023-02-20T17:54:29;12.30;99.90
30186;DHT22;31152;49.190;8.122;2023-02-20T17:57:01;12.30;99.90
30186;DHT22;31152;49.190;8.122;2023-02-20T17:59:28;12.30;99.90
30186;DHT22;31152;49.190;8.122;2023-02-20T18:01:59;12.20;99.90
30186;DHT22;31152;49.190;8.122;2023-02-20T18:04:29;12.20;99.90
30186;DHT22;31152;49.190;8.122;2023-02-20T18:06:56;12.10;99.90
30186;DHT22;31152;49.190;8.122;2023-02-20T18:09:23;12.00;99.90
30186;DHT22;31152;49.190;8.122;2023-02-20T18:11:53;12.00;99.90
30186;DHT22;31152;49.190;8.122;2023-02-20T18:14:22;12.00;99.90
30186;DHT22;31152;49.190;8.122;2023-02-20T18:16:52;12.00;99.90
30186;DHT22;31152;49.190;8.122;2023-02-20T18:19:18;12.00;99.90